sensor_id;sensor_type;location;lat;lon;timestamp;P1;durP1;ratioP1;P2;durP2;ratioP2
79728;SDS011;69218;52.132;5.418;2023-06-05T00:01:33;6.43;;;2.92;;
79728;SDS011;69218;52.132;5.418;2023-06-05T00:04:01;5.75;;;2.65;;
79728;SDS011;69218;52.132;5.418;2023-06-05T00:06:29;5.20;;;2.67;;
79728;SDS011;69218;52.132;5.418;2023-06-05T00:08:58;6.07;;;2.90;;
79728;SDS011;69218;52.132;5.418;2023-06-05T00:11:28;8.00;;;2.97;;
79728;SDS011;69218;52.132;5.418;2023-06-05T00:14:02;5.75;;;2.90;;
79728;SDS011;69218;52.132;5.418;2023-06-05T00:16:29;5.88;;;2.85;;
79728;SDS011;69218;52.132;5.418;2023-06-05T00:18:59;6.70;;;2.92;;
79728;SDS011;69218;52.132;5.418;2023-06-05T00:21:26;5.25;;;2.60;;
79728;SDS011;69218;52.132;5.418;2023-06-05T00:23:54;7.30;;;3.30;;
79728;SDS011;69218;52.132;5.418;2023-06-05T00:26:21;6.45;;;3.28;;
79728;SDS011;69218;52.132;5.418;2023-06-05T00:28:48;4.65;;;2.15;;
79728;SDS011;69218;52.132;5.418;2023-06-05T00:31:14;5.50;;;3.05;;
79728;SDS011;69218;52.132;5.418;2023-06-05T00:33:43;7.20;;;3.60;;
79728;SDS011;69218;52.132;5.418;2023-06-05T00:36:10;6.65;;;2.58;;
79728;SDS011;69218;52.132;5.418;2023-06-05T00:38:37;5.30;;;2.53;;
79728;SDS011;69218;52.132;5.418;2023-06-05T00:41:04;6.07;;;2.88;;
79728;SDS011;69218;52.132;5.418;2023-06-05T00:43:30;4.95;;;2.65;;
79728;SDS011;69218;52.132;5.418;2023-06-05T00:45:59;7.07;;;3.03;;
79728;SDS011;69218;52.132;5.418;2023-06-05T00:48:29;7.75;;;3.42;;
79728;SDS011;69218;52.132;5.418;2023-06-05T00:50:59;5.65;;;2.90;;
79728;SDS011;69218;52.132;5.418;2023-06-05T00:53:26;6.85;;;3.22;;
79728;SDS011;69218;52.132;5.418;2023-06-05T00:55:56;8.80;;;3.20;;
79728;SDS011;69218;52.132;5.418;2023-06-05T00:58:23;6.38;;;3.03;;
79728;SDS011;69218;52.132;5.418;2023-06-05T01:00:51;7.18;;;2.97;;
79728;SDS011;69218;52.132;5.418;2023-06-05T01:03:21;8.00;;;3.17;;
79728;SDS011;69218;52.132;5.418;2023-06-05T01:05:49;5.93;;;3.05;;
79728;SDS011;69218;52.132;5.418;2023-06-05T01:08:15;5.72;;;3.08;;
79728;SDS011;69218;52.132;5.418;2023-06-05T01:10:46;8.18;;;3.80;;
79728;SDS011;69218;52.132;5.418;2023-06-05T01:13:14;7.88;;;3.55;;
79728;SDS011;69218;52.132;5.418;2023-06-05T01:15:55;8.05;;;3.72;;
79728;SDS011;69218;52.132;5.418;2023-06-05T01:18:22;5.63;;;3.15;;
79728;SDS011;69218;52.132;5.418;2023-06-05T01:20:51;6.03;;;3.40;;
79728;SDS011;69218;52.132;5.418;2023-06-05T01:23:17;7.03;;;3.30;;
79728;SDS011;69218;52.132;5.418;2023-06-05T01:25:44;8.18;;;3.38;;
79728;SDS011;69218;52.132;5.418;2023-06-05T01:28:19;8.35;;;3.45;;
79728;SDS011;69218;52.132;5.418;2023-06-05T01:30:57;7.20;;;2.92;;
79728;SDS011;69218;52.132;5.418;2023-06-05T01:36:08;6.50;;;3.45;;
79728;SDS011;69218;52.132;5.418;2023-06-05T01:38:38;6.32;;;3.13;;
79728;SDS011;69218;52.132;5.418;2023-06-05T01:41:07;8.80;;;3.15;;
79728;SDS011;69218;52.132;5.418;2023-06-05T01:43:39;5.45;;;3.13;;
79728;SDS011;69218;52.132;5.418;2023-06-05T01:46:07;7.22;;;2.83;;
79728;SDS011;69218;52.132;5.418;2023-06-05T01:48:35;6.55;;;3.22;;
79728;SDS011;69218;52.132;5.418;2023-06-05T01:51:02;6.78;;;3.72;;
79728;SDS011;69218;52.132;5.418;2023-06-05T01:53:29;6.38;;;3.55;;
79728;SDS011;69218;52.132;5.418;2023-06-05T01:55:56;6.65;;;3.53;;
79728;SDS011;69218;52.132;5.418;2023-06-05T01:58:26;5.07;;;2.97;;
79728;SDS011;69218;52.132;5.418;2023-06-05T02:00:53;7.13;;;3.25;;
79728;SDS011;69218;52.132;5.418;2023-06-05T02:03:23;6.53;;;2.97;;
79728;SDS011;69218;52.132;5.418;2023-06-05T02:05:51;6.80;;;3.33;;
79728;SDS011;69218;52.132;5.418;2023-06-05T02:08:17;7.75;;;3.33;;
79728;SDS011;69218;52.132;5.418;2023-06-05T02:10:49;7.35;;;2.95;;
79728;SDS011;69218;52.132;5.418;2023-06-05T02:13:16;8.77;;;4.13;;
79728;SDS011;69218;52.132;5.418;2023-06-05T02:15:45;6.80;;;3.15;;
79728;SDS011;69218;52.132;5.418;2023-06-05T02:18:12;7.57;;;3.80;;
79728;SDS011;69218;52.132;5.418;2023-06-05T02:20:40;7.45;;;4.03;;
79728;SDS011;69218;52.132;5.418;2023-06-05T02:23:07;7.90;;;3.50;;
79728;SDS011;69218;52.132;5.418;2023-06-05T02:25:34;6.90;;;3.53;;
79728;SDS011;69218;52.132;5.418;2023-06-05T02:28:01;9.95;;;3.80;;
79728;SDS011;69218;52.132;5.418;2023-06-05T02:30:27;7.47;;;3.58;;
79728;SDS011;69218;52.132;5.418;2023-06-05T02:32:54;6.65;;;3.25;;
79728;SDS011;69218;52.132;5.418;2023-06-05T02:35:23;6.03;;;3.47;;
79728;SDS011;69218;52.132;5.418;2023-06-05T02:37:50;7.25;;;3.45;;
79728;SDS011;69218;52.132;5.418;2023-06-05T02:40:16;7.55;;;3.53;;
79728;SDS011;69218;52.132;5.418;2023-06-05T02:42:43;7.45;;;3.70;;
79728;SDS011;69218;52.132;5.418;2023-06-05T02:45:10;7.68;;;3.10;;
79728;SDS011;69218;52.132;5.418;2023-06-05T02:47:36;7.53;;;3.55;;
79728;SDS011;69218;52.132;5.418;2023-06-05T02:50:03;7.28;;;4.30;;
79728;SDS011;69218;52.132;5.418;2023-06-05T02:52:31;8.77;;;3.28;;
79728;SDS011;69218;52.132;5.418;2023-06-05T02:55:02;9.55;;;3.80;;
79728;SDS011;69218;52.132;5.418;2023-06-05T02:57:29;6.93;;;3.17;;
79728;SDS011;69218;52.132;5.418;2023-06-05T02:59:56;7.32;;;3.22;;
79728;SDS011;69218;52.132;5.418;2023-06-05T03:02:23;6.80;;;3.22;;
79728;SDS011;69218;52.132;5.418;2023-06-05T03:04:53;8.48;;;3.60;;
79728;SDS011;69218;52.132;5.418;2023-06-05T03:07:21;6.03;;;3.30;;
79728;SDS011;69218;52.132;5.418;2023-06-05T03:09:49;8.00;;;3.45;;
79728;SDS011;69218;52.132;5.418;2023-06-05T03:12:16;7.35;;;3.95;;
79728;SDS011;69218;52.132;5.418;2023-06-05T03:14:42;7.78;;;3.90;;
79728;SDS011;69218;52.132;5.418;2023-06-05T03:17:11;8.73;;;3.60;;
79728;SDS011;69218;52.132;5.418;2023-06-05T03:19:37;7.07;;;3.67;;
79728;SDS011;69218;52.132;5.418;2023-06-05T03:22:04;8.85;;;3.60;;
79728;SDS011;69218;52.132;5.418;2023-06-05T03:24:31;8.77;;;3.42;;
79728;SDS011;69218;52.132;5.418;2023-06-05T03:26:58;7.57;;;3.80;;
79728;SDS011;69218;52.132;5.418;2023-06-05T03:29:24;6.80;;;3.55;;
79728;SDS011;69218;52.132;5.418;2023-06-05T03:31:51;10.05;;;3.70;;
79728;SDS011;69218;52.132;5.418;2023-06-05T03:34:18;6.65;;;3.70;;
79728;SDS011;69218;52.132;5.418;2023-06-05T03:36:44;9.00;;;3.88;;
79728;SDS011;69218;52.132;5.418;2023-06-05T03:39:11;10.73;;;3.22;;
79728;SDS011;69218;52.132;5.418;2023-06-05T03:41:38;8.38;;;3.25;;
79728;SDS011;69218;52.132;5.418;2023-06-05T03:44:04;7.78;;;3.97;;
79728;SDS011;69218;52.132;5.418;2023-06-05T03:46:33;7.65;;;3.67;;
79728;SDS011;69218;52.132;5.418;2023-06-05T03:48:59;11.00;;;4.07;;
79728;SDS011;69218;52.132;5.418;2023-06-05T03:51:32;9.15;;;3.63;;
79728;SDS011;69218;52.132;5.418;2023-06-05T03:53:59;8.20;;;3.53;;
79728;SDS011;69218;52.132;5.418;2023-06-05T03:56:27;8.80;;;4.20;;
79728;SDS011;69218;52.132;5.418;2023-06-05T03:58:57;7.93;;;4.20;;
79728;SDS011;69218;52.132;5.418;2023-06-05T04:01:24;8.65;;;4.60;;
79728;SDS011;69218;52.132;5.418;2023-06-05T04:03:51;11.23;;;4.28;;
79728;SDS011;69218;52.132;5.418;2023-06-05T04:06:17;7.68;;;3.55;;
79728;SDS011;69218;52.132;5.418;2023-06-05T04:08:44;9.63;;;4.28;;
79728;SDS011;69218;52.132;5.418;2023-06-05T04:11:10;6.82;;;3.22;;
79728;SDS011;69218;52.132;5.418;2023-06-05T04:13:37;9.57;;;3.75;;
79728;SDS011;69218;52.132;5.418;2023-06-05T04:16:03;8.88;;;4.18;;
79728;SDS011;69218;52.132;5.418;2023-06-05T04:18:30;10.93;;;4.13;;
79728;SDS011;69218;52.132;5.418;2023-06-05T04:20:57;8.10;;;4.35;;
79728;SDS011;69218;52.132;5.418;2023-06-05T04:23:24;11.93;;;4.18;;
79728;SDS011;69218;52.132;5.418;2023-06-05T04:25:50;8.73;;;4.28;;
79728;SDS011;69218;52.132;5.418;2023-06-05T04:28:20;8.40;;;4.00;;
79728;SDS011;69218;52.132;5.418;2023-06-05T04:30:48;8.10;;;3.75;;
79728;SDS011;69218;52.132;5.418;2023-06-05T04:33:15;9.50;;;3.97;;
79728;SDS011;69218;52.132;5.418;2023-06-05T04:35:42;8.77;;;4.53;;
79728;SDS011;69218;52.132;5.418;2023-06-05T04:38:11;7.88;;;4.25;;
79728;SDS011;69218;52.132;5.418;2023-06-05T04:40:38;9.65;;;3.90;;
79728;SDS011;69218;52.132;5.418;2023-06-05T04:43:04;8.65;;;4.13;;
79728;SDS011;69218;52.132;5.418;2023-06-05T04:45:31;9.18;;;4.13;;
79728;SDS011;69218;52.132;5.418;2023-06-05T04:47:57;9.20;;;3.95;;
79728;SDS011;69218;52.132;5.418;2023-06-05T04:50:25;8.80;;;3.70;;
79728;SDS011;69218;52.132;5.418;2023-06-05T04:52:53;9.48;;;4.53;;
79728;SDS011;69218;52.132;5.418;2023-06-05T04:55:21;10.32;;;4.28;;
79728;SDS011;69218;52.132;5.418;2023-06-05T04:57:48;9.32;;;4.30;;
79728;SDS011;69218;52.132;5.418;2023-06-05T05:00:15;9.02;;;4.03;;
79728;SDS011;69218;52.132;5.418;2023-06-05T05:02:42;10.40;;;4.10;;
79728;SDS011;69218;52.132;5.418;2023-06-05T05:05:11;11.68;;;4.40;;
79728;SDS011;69218;52.132;5.418;2023-06-05T05:07:42;10.95;;;4.25;;
79728;SDS011;69218;52.132;5.418;2023-06-05T05:10:09;7.78;;;3.95;;
79728;SDS011;69218;52.132;5.418;2023-06-05T05:12:36;8.90;;;3.47;;
79728;SDS011;69218;52.132;5.418;2023-06-05T05:15:03;10.77;;;5.05;;
79728;SDS011;69218;52.132;5.418;2023-06-05T05:17:30;8.68;;;4.10;;
79728;SDS011;69218;52.132;5.418;2023-06-05T05:19:57;9.20;;;4.20;;
79728;SDS011;69218;52.132;5.418;2023-06-05T05:22:24;8.60;;;4.63;;
79728;SDS011;69218;52.132;5.418;2023-06-05T05:24:52;9.65;;;4.13;;
79728;SDS011;69218;52.132;5.418;2023-06-05T05:27:18;8.00;;;4.25;;
79728;SDS011;69218;52.132;5.418;2023-06-05T05:29:45;10.52;;;4.60;;
79728;SDS011;69218;52.132;5.418;2023-06-05T05:32:12;10.38;;;4.35;;
79728;SDS011;69218;52.132;5.418;2023-06-05T05:34:39;9.32;;;3.63;;
79728;SDS011;69218;52.132;5.418;2023-06-05T05:37:06;9.48;;;4.45;;
79728;SDS011;69218;52.132;5.418;2023-06-05T05:39:33;8.95;;;4.40;;
79728;SDS011;69218;52.132;5.418;2023-06-05T05:41:59;9.27;;;4.30;;
79728;SDS011;69218;52.132;5.418;2023-06-05T05:44:27;9.45;;;3.88;;
79728;SDS011;69218;52.132;5.418;2023-06-05T05:46:54;10.27;;;4.43;;
79728;SDS011;69218;52.132;5.418;2023-06-05T05:49:21;8.50;;;4.72;;
79728;SDS011;69218;52.132;5.418;2023-06-05T05:51:47;8.52;;;4.20;;
79728;SDS011;69218;52.132;5.418;2023-06-05T05:54:15;9.63;;;4.35;;
79728;SDS011;69218;52.132;5.418;2023-06-05T05:56:41;7.82;;;4.35;;
79728;SDS011;69218;52.132;5.418;2023-06-05T05:59:08;9.70;;;4.30;;
79728;SDS011;69218;52.132;5.418;2023-06-05T06:01:35;7.38;;;3.92;;
79728;SDS011;69218;52.132;5.418;2023-06-05T06:04:03;11.98;;;4.60;;
79728;SDS011;69218;52.132;5.418;2023-06-05T06:06:29;9.15;;;4.43;;
79728;SDS011;69218;52.132;5.418;2023-06-05T06:08:56;7.82;;;3.67;;
79728;SDS011;69218;52.132;5.418;2023-06-05T06:11:23;10.90;;;4.68;;
79728;SDS011;69218;52.132;5.418;2023-06-05T06:13:49;8.73;;;4.63;;
79728;SDS011;69218;52.132;5.418;2023-06-05T06:16:16;8.10;;;3.95;;
79728;SDS011;69218;52.132;5.418;2023-06-05T06:18:43;8.45;;;4.13;;
79728;SDS011;69218;52.132;5.418;2023-06-05T06:21:10;7.90;;;4.05;;
79728;SDS011;69218;52.132;5.418;2023-06-05T06:23:38;9.57;;;4.75;;
79728;SDS011;69218;52.132;5.418;2023-06-05T06:26:04;9.35;;;4.35;;
79728;SDS011;69218;52.132;5.418;2023-06-05T06:28:32;9.75;;;4.38;;
79728;SDS011;69218;52.132;5.418;2023-06-05T06:30:59;8.15;;;4.80;;
79728;SDS011;69218;52.132;5.418;2023-06-05T06:33:26;8.70;;;3.45;;
79728;SDS011;69218;52.132;5.418;2023-06-05T06:35:52;9.75;;;4.95;;
79728;SDS011;69218;52.132;5.418;2023-06-05T06:38:28;8.30;;;4.35;;
79728;SDS011;69218;52.132;5.418;2023-06-05T06:40:57;9.07;;;4.30;;
79728;SDS011;69218;52.132;5.418;2023-06-05T06:43:25;10.00;;;4.32;;
79728;SDS011;69218;52.132;5.418;2023-06-05T06:45:52;10.52;;;4.60;;
79728;SDS011;69218;52.132;5.418;2023-06-05T06:48:19;9.18;;;4.55;;
79728;SDS011;69218;52.132;5.418;2023-06-05T06:50:46;9.00;;;4.20;;
79728;SDS011;69218;52.132;5.418;2023-06-05T06:53:13;10.02;;;4.90;;
79728;SDS011;69218;52.132;5.418;2023-06-05T06:55:39;10.85;;;4.88;;
79728;SDS011;69218;52.132;5.418;2023-06-05T06:58:06;12.18;;;5.05;;
79728;SDS011;69218;52.132;5.418;2023-06-05T07:00:33;9.10;;;4.53;;
79728;SDS011;69218;52.132;5.418;2023-06-05T07:03:00;8.82;;;4.13;;
79728;SDS011;69218;52.132;5.418;2023-06-05T07:05:27;9.23;;;4.70;;
79728;SDS011;69218;52.132;5.418;2023-06-05T07:07:53;7.10;;;3.88;;
79728;SDS011;69218;52.132;5.418;2023-06-05T07:10:20;9.65;;;4.47;;
79728;SDS011;69218;52.132;5.418;2023-06-05T07:12:47;7.68;;;4.30;;
79728;SDS011;69218;52.132;5.418;2023-06-05T07:15:13;7.65;;;3.95;;
79728;SDS011;69218;52.132;5.418;2023-06-05T07:17:43;7.70;;;4.25;;
79728;SDS011;69218;52.132;5.418;2023-06-05T07:20:09;11.00;;;4.70;;
79728;SDS011;69218;52.132;5.418;2023-06-05T07:22:41;7.63;;;3.90;;
79728;SDS011;69218;52.132;5.418;2023-06-05T07:25:15;8.40;;;4.43;;
79728;SDS011;69218;52.132;5.418;2023-06-05T07:27:43;7.60;;;4.15;;
79728;SDS011;69218;52.132;5.418;2023-06-05T07:30:10;9.80;;;4.30;;
79728;SDS011;69218;52.132;5.418;2023-06-05T07:32:41;8.60;;;4.43;;
79728;SDS011;69218;52.132;5.418;2023-06-05T07:37:38;10.40;;;4.55;;
79728;SDS011;69218;52.132;5.418;2023-06-05T07:40:05;7.63;;;4.40;;
79728;SDS011;69218;52.132;5.418;2023-06-05T07:42:32;7.85;;;3.70;;
79728;SDS011;69218;52.132;5.418;2023-06-05T07:45:01;8.40;;;4.88;;
79728;SDS011;69218;52.132;5.418;2023-06-05T07:47:32;8.15;;;4.20;;
79728;SDS011;69218;52.132;5.418;2023-06-05T07:49:59;8.15;;;4.20;;
79728;SDS011;69218;52.132;5.418;2023-06-05T07:52:28;7.72;;;3.97;;
79728;SDS011;69218;52.132;5.418;2023-06-05T07:54:56;8.85;;;4.70;;
79728;SDS011;69218;52.132;5.418;2023-06-05T07:57:22;10.45;;;4.55;;
79728;SDS011;69218;52.132;5.418;2023-06-05T07:59:53;8.57;;;4.85;;
79728;SDS011;69218;52.132;5.418;2023-06-05T08:02:22;11.75;;;4.43;;
79728;SDS011;69218;52.132;5.418;2023-06-05T08:04:50;9.48;;;4.80;;
79728;SDS011;69218;52.132;5.418;2023-06-05T08:07:16;8.80;;;4.32;;
79728;SDS011;69218;52.132;5.418;2023-06-05T08:09:46;8.02;;;4.47;;
79728;SDS011;69218;52.132;5.418;2023-06-05T08:12:13;7.32;;;4.28;;
79728;SDS011;69218;52.132;5.418;2023-06-05T08:14:39;10.38;;;5.53;;
79728;SDS011;69218;52.132;5.418;2023-06-05T08:17:06;10.05;;;5.00;;
79728;SDS011;69218;52.132;5.418;2023-06-05T08:19:37;9.30;;;5.03;;
79728;SDS011;69218;52.132;5.418;2023-06-05T08:22:06;9.50;;;5.05;;
79728;SDS011;69218;52.132;5.418;2023-06-05T08:24:33;7.72;;;4.40;;
79728;SDS011;69218;52.132;5.418;2023-06-05T08:27:01;10.35;;;4.72;;
79728;SDS011;69218;52.132;5.418;2023-06-05T08:29:28;7.93;;;4.25;;
79728;SDS011;69218;52.132;5.418;2023-06-05T08:31:55;9.13;;;4.55;;
79728;SDS011;69218;52.132;5.418;2023-06-05T08:34:22;9.38;;;4.22;;
79728;SDS011;69218;52.132;5.418;2023-06-05T08:36:48;8.48;;;4.07;;
79728;SDS011;69218;52.132;5.418;2023-06-05T08:39:15;8.15;;;4.50;;
79728;SDS011;69218;52.132;5.418;2023-06-05T08:41:42;9.30;;;4.95;;
79728;SDS011;69218;52.132;5.418;2023-06-05T08:44:12;9.43;;;4.85;;
79728;SDS011;69218;52.132;5.418;2023-06-05T08:46:40;10.52;;;4.85;;
79728;SDS011;69218;52.132;5.418;2023-06-05T08:49:10;8.88;;;4.85;;
79728;SDS011;69218;52.132;5.418;2023-06-05T08:51:38;9.45;;;4.97;;
79728;SDS011;69218;52.132;5.418;2023-06-05T08:54:08;9.07;;;4.53;;
79728;SDS011;69218;52.132;5.418;2023-06-05T08:56:39;8.07;;;5.32;;
79728;SDS011;69218;52.132;5.418;2023-06-05T08:59:07;7.70;;;4.75;;
79728;SDS011;69218;52.132;5.418;2023-06-05T09:01:34;9.00;;;5.25;;
79728;SDS011;69218;52.132;5.418;2023-06-05T09:04:03;7.13;;;3.78;;
79728;SDS011;69218;52.132;5.418;2023-06-05T09:06:30;7.30;;;4.60;;
79728;SDS011;69218;52.132;5.418;2023-06-05T09:08:59;8.55;;;4.07;;
79728;SDS011;69218;52.132;5.418;2023-06-05T09:11:31;8.40;;;4.60;;
79728;SDS011;69218;52.132;5.418;2023-06-05T09:13:59;8.35;;;4.28;;
79728;SDS011;69218;52.132;5.418;2023-06-05T09:16:41;7.38;;;4.20;;
79728;SDS011;69218;52.132;5.418;2023-06-05T09:19:09;7.97;;;4.35;;
79728;SDS011;69218;52.132;5.418;2023-06-05T09:21:40;9.18;;;4.47;;
79728;SDS011;69218;52.132;5.418;2023-06-05T09:24:19;6.57;;;3.97;;
79728;SDS011;69218;52.132;5.418;2023-06-05T09:26:54;7.00;;;4.15;;
79728;SDS011;69218;52.132;5.418;2023-06-05T09:29:24;8.50;;;4.55;;
79728;SDS011;69218;52.132;5.418;2023-06-05T09:31:54;6.65;;;3.83;;
79728;SDS011;69218;52.132;5.418;2023-06-05T09:36:57;6.97;;;3.78;;
79728;SDS011;69218;52.132;5.418;2023-06-05T09:41:53;6.65;;;3.67;;
79728;SDS011;69218;52.132;5.418;2023-06-05T09:44:20;6.43;;;4.03;;
79728;SDS011;69218;52.132;5.418;2023-06-05T09:46:58;6.25;;;4.05;;
79728;SDS011;69218;52.132;5.418;2023-06-05T09:49:32;8.20;;;3.35;;
79728;SDS011;69218;52.132;5.418;2023-06-05T09:54:39;7.00;;;3.65;;
79728;SDS011;69218;52.132;5.418;2023-06-05T09:57:08;6.15;;;3.63;;
79728;SDS011;69218;52.132;5.418;2023-06-05T10:02:12;7.82;;;4.05;;
79728;SDS011;69218;52.132;5.418;2023-06-05T10:04:57;5.13;;;3.15;;
79728;SDS011;69218;52.132;5.418;2023-06-05T10:07:26;7.53;;;3.95;;
79728;SDS011;69218;52.132;5.418;2023-06-05T10:09:54;6.88;;;3.88;;
79728;SDS011;69218;52.132;5.418;2023-06-05T10:12:23;5.53;;;3.53;;
79728;SDS011;69218;52.132;5.418;2023-06-05T10:14:53;5.32;;;3.30;;
79728;SDS011;69218;52.132;5.418;2023-06-05T10:17:24;8.07;;;3.65;;
79728;SDS011;69218;52.132;5.418;2023-06-05T10:19:51;5.43;;;3.25;;
79728;SDS011;69218;52.132;5.418;2023-06-05T10:22:18;7.97;;;3.95;;
79728;SDS011;69218;52.132;5.418;2023-06-05T10:24:52;7.97;;;3.80;;
79728;SDS011;69218;52.132;5.418;2023-06-05T10:27:26;5.55;;;3.53;;
79728;SDS011;69218;52.132;5.418;2023-06-05T10:35:47;6.63;;;3.58;;
79728;SDS011;69218;52.132;5.418;2023-06-05T10:38:23;7.10;;;3.63;;
79728;SDS011;69218;52.132;5.418;2023-06-05T10:40:55;5.50;;;3.20;;
79728;SDS011;69218;52.132;5.418;2023-06-05T10:45:57;6.63;;;3.35;;
79728;SDS011;69218;52.132;5.418;2023-06-05T10:51:42;5.75;;;2.63;;
79728;SDS011;69218;52.132;5.418;2023-06-05T10:54:14;6.82;;;2.72;;
79728;SDS011;69218;52.132;5.418;2023-06-05T10:56:59;6.53;;;3.10;;
79728;SDS011;69218;52.132;5.418;2023-06-05T11:05:13;5.18;;;3.03;;
79728;SDS011;69218;52.132;5.418;2023-06-05T11:07:28;6.57;;;3.17;;
79728;SDS011;69218;52.132;5.418;2023-06-05T11:15:02;5.30;;;2.80;;
79728;SDS011;69218;52.132;5.418;2023-06-05T11:17:32;5.10;;;2.88;;
79728;SDS011;69218;52.132;5.418;2023-06-05T11:20:03;5.50;;;3.17;;
79728;SDS011;69218;52.132;5.418;2023-06-05T11:27:48;6.38;;;3.08;;
79728;SDS011;69218;52.132;5.418;2023-06-05T11:30:17;5.00;;;2.58;;
79728;SDS011;69218;52.132;5.418;2023-06-05T11:32:56;8.02;;;2.95;;
79728;SDS011;69218;52.132;5.418;2023-06-05T11:35:26;5.80;;;3.05;;
79728;SDS011;69218;52.132;5.418;2023-06-05T11:40:34;5.90;;;2.63;;
79728;SDS011;69218;52.132;5.418;2023-06-05T11:43:05;5.43;;;2.97;;
79728;SDS011;69218;52.132;5.418;2023-06-05T11:45:34;5.22;;;3.30;;
79728;SDS011;69218;52.132;5.418;2023-06-05T11:48:09;6.80;;;3.45;;
79728;SDS011;69218;52.132;5.418;2023-06-05T11:50:37;5.28;;;2.88;;
79728;SDS011;69218;52.132;5.418;2023-06-05T11:53:18;5.40;;;2.95;;
79728;SDS011;69218;52.132;5.418;2023-06-05T11:55:44;6.20;;;2.92;;
79728;SDS011;69218;52.132;5.418;2023-06-05T11:58:28;6.63;;;2.58;;
79728;SDS011;69218;52.132;5.418;2023-06-05T12:01:11;4.70;;;2.47;;
79728;SDS011;69218;52.132;5.418;2023-06-05T12:04:04;6.32;;;2.95;;
79728;SDS011;69218;52.132;5.418;2023-06-05T12:06:32;4.60;;;2.60;;
79728;SDS011;69218;52.132;5.418;2023-06-05T12:09:06;4.75;;;2.72;;
79728;SDS011;69218;52.132;5.418;2023-06-05T12:11:38;5.15;;;3.10;;
79728;SDS011;69218;52.132;5.418;2023-06-05T12:14:05;6.68;;;3.50;;
79728;SDS011;69218;52.132;5.418;2023-06-05T12:16:33;4.85;;;3.08;;
79728;SDS011;69218;52.132;5.418;2023-06-05T12:19:01;4.20;;;2.60;;
79728;SDS011;69218;52.132;5.418;2023-06-05T12:21:41;5.65;;;3.63;;
79728;SDS011;69218;52.132;5.418;2023-06-05T12:24:13;4.93;;;3.05;;
79728;SDS011;69218;52.132;5.418;2023-06-05T12:26:49;5.57;;;3.08;;
79728;SDS011;69218;52.132;5.418;2023-06-05T12:29:21;4.80;;;2.95;;
79728;SDS011;69218;52.132;5.418;2023-06-05T12:31:52;5.03;;;2.97;;
79728;SDS011;69218;52.132;5.418;2023-06-05T12:34:37;4.63;;;2.83;;
79728;SDS011;69218;52.132;5.418;2023-06-05T12:37:27;7.68;;;3.28;;
79728;SDS011;69218;52.132;5.418;2023-06-05T12:39:58;5.45;;;2.75;;
79728;SDS011;69218;52.132;5.418;2023-06-05T12:42:25;7.10;;;2.85;;
79728;SDS011;69218;52.132;5.418;2023-06-05T12:44:53;5.65;;;2.97;;
79728;SDS011;69218;52.132;5.418;2023-06-05T12:47:20;5.78;;;3.22;;
79728;SDS011;69218;52.132;5.418;2023-06-05T12:49:48;6.40;;;3.08;;
79728;SDS011;69218;52.132;5.418;2023-06-05T12:52:14;5.55;;;3.50;;
79728;SDS011;69218;52.132;5.418;2023-06-05T12:54:41;5.28;;;3.13;;
79728;SDS011;69218;52.132;5.418;2023-06-05T12:57:07;5.30;;;2.72;;
79728;SDS011;69218;52.132;5.418;2023-06-05T12:59:38;6.47;;;3.20;;
79728;SDS011;69218;52.132;5.418;2023-06-05T13:02:05;7.05;;;3.13;;
79728;SDS011;69218;52.132;5.418;2023-06-05T13:04:32;4.97;;;3.00;;
79728;SDS011;69218;52.132;5.418;2023-06-05T13:07:01;8.23;;;3.17;;
79728;SDS011;69218;52.132;5.418;2023-06-05T13:09:28;4.13;;;2.80;;
79728;SDS011;69218;52.132;5.418;2023-06-05T13:11:55;7.03;;;3.38;;
79728;SDS011;69218;52.132;5.418;2023-06-05T13:14:23;6.63;;;3.90;;
79728;SDS011;69218;52.132;5.418;2023-06-05T13:16:53;6.18;;;3.17;;
79728;SDS011;69218;52.132;5.418;2023-06-05T13:19:20;4.90;;;3.08;;
79728;SDS011;69218;52.132;5.418;2023-06-05T13:21:49;8.77;;;3.40;;
79728;SDS011;69218;52.132;5.418;2023-06-05T13:24:17;4.90;;;3.35;;
79728;SDS011;69218;52.132;5.418;2023-06-05T13:26:44;6.13;;;3.15;;
79728;SDS011;69218;52.132;5.418;2023-06-05T13:29:10;5.25;;;2.75;;
79728;SDS011;69218;52.132;5.418;2023-06-05T13:31:37;5.85;;;2.92;;
79728;SDS011;69218;52.132;5.418;2023-06-05T13:34:04;5.32;;;3.17;;
79728;SDS011;69218;52.132;5.418;2023-06-05T13:36:32;6.30;;;3.45;;
79728;SDS011;69218;52.132;5.418;2023-06-05T13:38:59;6.15;;;3.05;;
79728;SDS011;69218;52.132;5.418;2023-06-05T13:41:26;5.53;;;3.60;;
79728;SDS011;69218;52.132;5.418;2023-06-05T13:43:53;6.03;;;3.10;;
79728;SDS011;69218;52.132;5.418;2023-06-05T13:46:22;4.15;;;2.80;;
79728;SDS011;69218;52.132;5.418;2023-06-05T13:48:49;5.97;;;3.22;;
79728;SDS011;69218;52.132;5.418;2023-06-05T13:51:15;6.18;;;2.83;;
79728;SDS011;69218;52.132;5.418;2023-06-05T13:53:43;5.22;;;3.10;;
79728;SDS011;69218;52.132;5.418;2023-06-05T13:56:11;6.45;;;3.13;;
79728;SDS011;69218;52.132;5.418;2023-06-05T13:58:40;5.70;;;3.25;;
79728;SDS011;69218;52.132;5.418;2023-06-05T14:01:09;6.53;;;3.67;;
79728;SDS011;69218;52.132;5.418;2023-06-05T14:03:36;7.05;;;3.55;;
79728;SDS011;69218;52.132;5.418;2023-06-05T14:06:05;6.15;;;3.05;;
79728;SDS011;69218;52.132;5.418;2023-06-05T14:08:33;7.35;;;3.67;;
79728;SDS011;69218;52.132;5.418;2023-06-05T14:11:00;5.32;;;3.88;;
79728;SDS011;69218;52.132;5.418;2023-06-05T14:13:27;6.53;;;3.50;;
79728;SDS011;69218;52.132;5.418;2023-06-05T14:15:54;5.80;;;3.50;;
79728;SDS011;69218;52.132;5.418;2023-06-05T14:18:24;5.05;;;3.17;;
79728;SDS011;69218;52.132;5.418;2023-06-05T14:20:51;7.32;;;3.85;;
79728;SDS011;69218;52.132;5.418;2023-06-05T14:23:18;6.47;;;3.22;;
79728;SDS011;69218;52.132;5.418;2023-06-05T14:25:49;4.82;;;3.25;;
79728;SDS011;69218;52.132;5.418;2023-06-05T14:28:19;5.82;;;3.25;;
79728;SDS011;69218;52.132;5.418;2023-06-05T14:30:46;7.82;;;3.30;;
79728;SDS011;69218;52.132;5.418;2023-06-05T14:33:12;6.43;;;3.75;;
79728;SDS011;69218;52.132;5.418;2023-06-05T14:35:39;7.03;;;2.95;;
79728;SDS011;69218;52.132;5.418;2023-06-05T14:38:06;6.03;;;3.55;;
79728;SDS011;69218;52.132;5.418;2023-06-05T14:40:32;6.13;;;3.22;;
79728;SDS011;69218;52.132;5.418;2023-06-05T14:43:00;8.40;;;3.78;;
79728;SDS011;69218;52.132;5.418;2023-06-05T14:45:27;6.40;;;3.38;;
79728;SDS011;69218;52.132;5.418;2023-06-05T14:47:53;5.72;;;3.33;;
79728;SDS011;69218;52.132;5.418;2023-06-05T14:50:23;6.22;;;3.40;;
79728;SDS011;69218;52.132;5.418;2023-06-05T14:52:49;5.82;;;3.13;;
79728;SDS011;69218;52.132;5.418;2023-06-05T14:55:16;7.18;;;3.85;;
79728;SDS011;69218;52.132;5.418;2023-06-05T14:58:08;6.18;;;3.13;;
79728;SDS011;69218;52.132;5.418;2023-06-05T15:00:37;6.30;;;3.85;;
79728;SDS011;69218;52.132;5.418;2023-06-05T15:03:10;5.70;;;2.88;;
79728;SDS011;69218;52.132;5.418;2023-06-05T15:05:37;5.93;;;3.33;;
79728;SDS011;69218;52.132;5.418;2023-06-05T15:08:04;6.53;;;3.78;;
79728;SDS011;69218;52.132;5.418;2023-06-05T15:10:34;5.80;;;2.78;;
79728;SDS011;69218;52.132;5.418;2023-06-05T15:13:01;5.43;;;3.40;;
79728;SDS011;69218;52.132;5.418;2023-06-05T15:15:27;5.00;;;3.00;;
79728;SDS011;69218;52.132;5.418;2023-06-05T15:17:54;4.70;;;2.75;;
79728;SDS011;69218;52.132;5.418;2023-06-05T15:20:21;8.10;;;3.20;;
79728;SDS011;69218;52.132;5.418;2023-06-05T15:22:51;6.30;;;3.22;;
79728;SDS011;69218;52.132;5.418;2023-06-05T15:25:38;7.75;;;3.80;;
79728;SDS011;69218;52.132;5.418;2023-06-05T15:28:05;5.65;;;3.03;;
79728;SDS011;69218;52.132;5.418;2023-06-05T15:30:32;6.85;;;3.58;;
79728;SDS011;69218;52.132;5.418;2023-06-05T15:32:59;6.60;;;3.20;;
79728;SDS011;69218;52.132;5.418;2023-06-05T15:35:26;7.05;;;3.20;;
79728;SDS011;69218;52.132;5.418;2023-06-05T15:37:53;6.50;;;3.35;;
79728;SDS011;69218;52.132;5.418;2023-06-05T15:40:20;7.07;;;2.85;;